Time;durP1;ratioP1;P1;durP2;ratioP2;P2;SDS_P1;SDS_P2;PMS_P1;PMS_P2;Temp;Humidity;BMP_temperature;BMP_pressure;BME280_temperature;BME280_humidity;BME280_pressure;Samples;Min_cycle;Max_cycle;Signal;HPM_P1;HPM_P2
2021/01/23 00:01:16;;;;;;;11.52;7.65;;;19.00;45.50;;;;;;5086259;28;20048;-39
2021/01/23 00:03:43;;;;;;;10.68;7.25;;;19.00;45.50;;;;;;5080649;28;20126;-40
2021/01/23 00:06:09;;;;;;;11.48;7.65;;;19.00;45.50;;;;;;5087579;28;20134;-39
2021/01/23 00:08:36;;;;;;;9.45;7.15;;;19.00;45.50;;;;;;5080997;28;20101;-42
2021/01/23 00:11:03;;;;;;;10.63;7.05;;;19.00;45.50;;;;;;5083492;28;20048;-39
2021/01/23 00:13:30;;;;;;;10.02;6.78;;;19.00;45.50;;;;;;5084048;28;20551;-39
2021/01/23 00:15:57;;;;;;;10.13;7.35;;;19.00;45.60;;;;;;5087387;28;20105;-40
2021/01/23 00:18:23;;;;;;;10.23;7.05;;;19.00;45.50;;;;;;5080448;28;20044;-39
2021/01/23 00:20:51;;;;;;;10.00;7.03;;;19.00;45.50;;;;;;5084410;28;20040;-42
2021/01/23 00:23:17;;;;;;;10.80;6.75;;;19.00;45.50;;;;;;5083086;28;20044;-39
2021/01/23 00:25:44;;;;;;;10.40;7.43;;;19.00;45.50;;;;;;5080810;28;20052;-40
2021/01/23 00:28:11;;;;;;;12.20;7.72;;;19.00;45.50;;;;;;5082345;28;20101;-41
2021/01/23 00:30:37;;;;;;;10.82;7.70;;;19.00;45.50;;;;;;5083144;28;20063;-40
2021/01/23 00:33:04;;;;;;;10.27;6.88;;;19.00;45.50;;;;;;5082721;28;20105;-39
2021/01/23 00:35:30;;;;;;;10.75;6.90;;;19.00;45.50;;;;;;5081162;28;20053;-40
2021/01/23 00:37:57;;;;;;;9.88;7.00;;;19.00;45.50;;;;;;5081306;28;20131;-39
2021/01/23 00:40:24;;;;;;;9.90;7.07;;;19.00;45.50;;;;;;5083480;28;20091;-39
2021/01/23 00:42:51;;;;;;;11.70;7.45;;;19.00;45.50;;;;;;5080867;28;20131;-39
2021/01/23 00:45:17;;;;;;;10.30;6.95;;;19.00;45.50;;;;;;5086250;28;20047;-39
2021/01/23 00:47:44;;;;;;;9.57;7.00;;;19.00;45.50;;;;;;5084804;28;20470;-38
2021/01/23 00:50:11;;;;;;;11.32;7.75;;;19.00;45.50;;;;;;5079359;28;20054;-38
2021/01/23 00:52:39;;;;;;;8.82;6.43;;;19.00;45.50;;;;;;5079584;28;20059;-38
2021/01/23 00:55:06;;;;;;;10.65;7.13;;;19.00;45.50;;;;;;5076626;28;20477;-39
2021/01/23 00:57:32;;;;;;;9.80;7.20;;;19.00;45.50;;;;;;5078786;28;20075;-38
2021/01/23 00:59:59;;;;;;;10.10;7.15;;;19.00;45.50;;;;;;5084637;28;20044;-38
2021/01/23 01:02:26;;;;;;;10.23;7.18;;;19.00;45.50;;;;;;5087060;28;20037;-39
2021/01/23 01:04:53;;;;;;;10.88;8.23;;;19.00;45.50;;;;;;5084720;28;20090;-38
2021/01/23 01:07:19;;;;;;;13.55;7.53;;;19.00;45.50;;;;;;5081835;28;20466;-38
2021/01/23 01:09:46;;;;;;;10.48;7.68;;;19.00;45.50;;;;;;5093496;28;20044;-39
2021/01/23 01:12:12;;;;;;;9.85;6.65;;;19.00;45.50;;;;;;5087775;28;20044;-38
2021/01/23 01:14:40;;;;;;;9.48;6.82;;;19.00;45.50;;;;;;5086582;28;20407;-38
2021/01/23 01:17:06;;;;;;;9.77;7.13;;;18.90;45.50;;;;;;5090239;28;20079;-38
2021/01/23 01:19:33;;;;;;;11.23;7.28;;;19.00;45.50;;;;;;5083890;28;20372;-38
2021/01/23 01:22:00;;;;;;;10.98;7.50;;;19.00;45.50;;;;;;5079683;28;20123;-39
2021/01/23 01:24:26;;;;;;;10.20;7.00;;;19.00;45.50;;;;;;5084557;28;20163;-38
2021/01/23 01:26:53;;;;;;;11.82;7.18;;;19.00;45.50;;;;;;5086643;28;20156;-38
2021/01/23 01:29:20;;;;;;;11.60;7.38;;;19.00;45.50;;;;;;5083471;28;20534;-38
2021/01/23 01:31:46;;;;;;;9.73;6.80;;;18.90;45.40;;;;;;5090001;28;20044;-38
2021/01/23 01:34:13;;;;;;;11.82;7.43;;;18.90;45.50;;;;;;5087934;28;20052;-38
2021/01/23 01:36:40;;;;;;;10.52;6.82;;;19.00;45.50;;;;;;5078264;28;20063;-38
2021/01/23 01:39:08;;;;;;;9.90;7.15;;;18.90;45.50;;;;;;5084634;28;20044;-38
2021/01/23 01:41:39;;;;;;;10.52;7.40;;;18.90;45.50;;;;;;5087324;28;20123;-39
2021/01/23 01:44:07;;;;;;;11.73;7.93;;;18.90;45.50;;;;;;5077235;28;20044;-38
2021/01/23 01:46:35;;;;;;;10.32;7.53;;;19.00;45.50;;;;;;5085781;28;20482;-38
2021/01/23 01:49:04;;;;;;;10.77;7.55;;;18.90;45.50;;;;;;5080317;28;20068;-39
2021/01/23 01:51:32;;;;;;;10.35;7.28;;;18.90;45.50;;;;;;5080736;28;20072;-38
2021/01/23 01:53:59;;;;;;;10.65;7.35;;;18.90;45.50;;;;;;5086292;28;20071;-39
2021/01/23 01:56:26;;;;;;;11.18;7.32;;;18.90;45.50;;;;;;5085047;28;20488;-38
2021/01/23 01:58:52;;;;;;;10.45;7.35;;;18.90;45.50;;;;;;5086994;28;20079;-38
2021/01/23 02:01:19;;;;;;;10.95;7.60;;;18.90;45.50;;;;;;5089268;28;20040;-38
2021/01/23 02:03:54;;;;;;;11.52;7.90;;;18.90;45.50;;;;;;5084467;28;20080;-39
2021/01/23 02:06:58;;;;;;;10.73;7.45;;;18.90;45.50;;;;;;5088558;28;20461;-39
2021/01/23 02:09:49;;;;;;;10.85;7.63;;;18.90;45.50;;;;;;5087180;28;20057;-38
2021/01/23 02:12:34;;;;;;;10.25;6.85;;;18.90;45.50;;;;;;5080142;28;20462;-39
2021/01/23 02:15:09;;;;;;;10.27;7.30;;;18.90;45.50;;;;;;5081935;28;20044;-39
2021/01/23 02:17:48;;;;;;;10.27;7.28;;;18.90;45.50;;;;;;5083661;28;20043;-39
2021/01/23 02:20:49;;;;;;;11.00;7.50;;;18.90;45.50;;;;;;5085831;28;20040;-39
2021/01/23 02:23:29;;;;;;;10.23;7.15;;;18.90;45.50;;;;;;5081268;28;20047;-39
2021/01/23 02:26:02;;;;;;;11.30;7.38;;;18.90;45.50;;;;;;5086757;28;20526;-43
2021/01/23 02:28:56;;;;;;;10.73;7.70;;;18.90;45.50;;;;;;5084558;28;20052;-38
2021/01/23 02:31:27;;;;;;;9.80;7.03;;;18.90;45.60;;;;;;5086721;28;20097;-39
2021/01/23 02:33:58;;;;;;;9.45;7.05;;;18.90;45.50;;;;;;5083603;28;20063;-43
2021/01/23 02:36:26;;;;;;;9.85;7.03;;;18.90;45.50;;;;;;5086447;28;20101;-40
2021/01/23 02:38:54;;;;;;;10.10;7.30;;;18.90;45.50;;;;;;5081867;28;20037;-40
2021/01/23 02:41:43;;;;;;;10.65;7.68;;;18.90;45.60;;;;;;5083797;28;20064;-42
2021/01/23 02:44:10;;;;;;;10.63;7.50;;;18.90;45.60;;;;;;5082123;28;20051;-38
2021/01/23 02:46:37;;;;;;;10.02;7.13;;;18.90;45.60;;;;;;5087341;28;20049;-43
2021/01/23 02:49:04;;;;;;;10.38;7.53;;;18.90;45.60;;;;;;5080258;28;20127;-46
2021/01/23 02:51:43;;;;;;;11.18;7.40;;;18.90;46.20;;;;;;5087378;28;20396;-44
2021/01/23 02:54:36;;;;;;;9.27;6.43;;;18.90;45.60;;;;;;5086161;28;20048;-40
2021/01/23 02:57:07;;;;;;;10.43;7.32;;;18.90;45.60;;;;;;5083272;28;20067;-41
2021/01/23 02:59:35;;;;;;;9.68;6.93;;;18.90;45.60;;;;;;5078058;28;20396;-41
2021/01/23 03:02:05;;;;;;;10.25;6.90;;;18.90;45.60;;;;;;5076610;28;20064;-39
2021/01/23 03:04:32;;;;;;;9.52;6.85;;;18.90;45.60;;;;;;5079223;28;20442;-40
2021/01/23 03:06:59;;;;;;;10.88;7.28;;;18.90;45.60;;;;;;5081052;28;20076;-40
2021/01/23 03:09:26;;;;;;;10.88;7.32;;;18.90;45.60;;;;;;5083416;28;20461;-45
2021/01/23 03:11:53;;;;;;;8.88;6.45;;;18.90;45.60;;;;;;5088512;28;20048;-42
2021/01/23 03:14:20;;;;;;;10.05;6.72;;;18.90;45.60;;;;;;5076865;28;20096;-44
2021/01/23 03:16:51;;;;;;;10.32;7.13;;;18.90;45.60;;;;;;5079983;28;20098;-43
2021/01/23 03:19:18;;;;;;;10.65;7.22;;;18.90;45.60;;;;;;5080743;28;20446;-42
2021/01/23 03:21:47;;;;;;;9.85;7.18;;;18.90;45.60;;;;;;5083302;28;20052;-39
2021/01/23 03:24:14;;;;;;;11.52;7.50;;;18.90;45.60;;;;;;5075257;28;20048;-39
2021/01/23 03:26:40;;;;;;;10.18;7.35;;;18.90;45.60;;;;;;5082111;28;20112;-39
2021/01/23 03:29:07;;;;;;;9.75;7.07;;;18.90;45.60;;;;;;5079811;28;20098;-42
2021/01/23 03:31:35;;;;;;;9.93;6.75;;;18.90;45.60;;;;;;5085798;28;20095;-39
2021/01/23 03:34:03;;;;;;;11.40;7.55;;;18.90;45.60;;;;;;5078861;28;20076;-42
2021/01/23 03:36:31;;;;;;;11.30;7.55;;;18.90;45.60;;;;;;5082308;28;20040;-41
2021/01/23 03:38:57;;;;;;;11.90;7.20;;;18.90;45.60;;;;;;5084984;28;20093;-40
2021/01/23 03:41:24;;;;;;;10.75;7.05;;;18.90;45.60;;;;;;5083397;28;20036;-39
2021/01/23 03:43:51;;;;;;;10.05;6.80;;;18.90;45.60;;;;;;5065303;28;20420;-41
2021/01/23 03:46:18;;;;;;;9.05;6.72;;;18.90;45.60;;;;;;5083391;28;20083;-38
2021/01/23 03:48:45;;;;;;;9.40;6.75;;;18.90;45.60;;;;;;5085664;28;20044;-39
2021/01/23 03:51:12;;;;;;;12.05;7.95;;;18.90;45.60;;;;;;5079873;28;20053;-39
2021/01/23 03:53:39;;;;;;;10.45;7.10;;;18.90;45.60;;;;;;5080758;28;20066;-39
2021/01/23 03:56:06;;;;;;;13.52;7.53;;;18.90;45.60;;;;;;5082818;28;20040;-39
2021/01/23 03:58:34;;;;;;;9.45;6.70;;;18.90;45.60;;;;;;5078762;28;20065;-39
2021/01/23 04:01:02;;;;;;;11.18;7.43;;;18.90;45.70;;;;;;5080013;28;20414;-39
2021/01/23 04:03:29;;;;;;;10.60;7.53;;;18.90;45.70;;;;;;5081891;28;20079;-39
2021/01/23 04:05:56;;;;;;;10.35;6.78;;;18.90;45.70;;;;;;5090450;28;20377;-39
2021/01/23 04:08:23;;;;;;;10.65;7.22;;;18.90;45.70;;;;;;5085841;28;20048;-38
2021/01/23 04:10:49;;;;;;;11.07;7.35;;;18.90;45.70;;;;;;5083287;28;20093;-39
2021/01/23 04:13:16;;;;;;;10.25;7.50;;;18.90;45.70;;;;;;5082653;28;20044;-40
2021/01/23 04:15:44;;;;;;;11.45;7.30;;;18.90;45.70;;;;;;5087244;28;20040;-42
2021/01/23 04:18:11;;;;;;;11.35;7.75;;;18.90;45.70;;;;;;5078010;28;20040;-38
2021/01/23 04:20:39;;;;;;;9.55;6.95;;;18.90;45.70;;;;;;5086331;28;20051;-39
2021/01/23 04:23:06;;;;;;;10.68;6.97;;;18.90;45.70;;;;;;5082896;28;20052;-39
2021/01/23 04:25:32;;;;;;;10.27;7.30;;;18.90;45.70;;;;;;5078563;28;20052;-38
2021/01/23 04:27:59;;;;;;;9.10;6.70;;;18.90;45.70;;;;;;5084061;28;20044;-40
2021/01/23 04:30:26;;;;;;;10.07;6.93;;;18.90;45.70;;;;;;5076512;28;20492;-40
2021/01/23 04:32:53;;;;;;;9.82;6.85;;;18.90;45.70;;;;;;5078857;28;20049;-40
2021/01/23 04:35:20;;;;;;;10.40;6.88;;;18.90;45.70;;;;;;5086412;28;20072;-39
2021/01/23 04:37:47;;;;;;;10.05;7.10;;;18.90;45.70;;;;;;5083155;28;20048;-39
2021/01/23 04:40:14;;;;;;;9.48;6.70;;;18.90;45.70;;;;;;5091047;28;20044;-40
2021/01/23 04:42:44;;;;;;;8.80;6.57;;;18.90;45.70;;;;;;5083145;28;20075;-39
2021/01/23 04:45:12;;;;;;;9.82;7.15;;;18.90;45.70;;;;;;5091622;28;20462;-41
2021/01/23 04:47:40;;;;;;;9.73;6.65;;;18.90;45.70;;;;;;5090270;28;20418;-41
2021/01/23 04:50:09;;;;;;;10.10;6.93;;;18.80;45.60;;;;;;5087668;28;20438;-39
2021/01/23 04:52:40;;;;;;;10.20;7.18;;;18.80;45.70;;;;;;5083784;28;20058;-40
2021/01/23 04:55:09;;;;;;;9.00;6.60;;;18.90;45.70;;;;;;5081163;28;20113;-43
2021/01/23 04:57:36;;;;;;;11.75;7.63;;;18.80;45.60;;;;;;5084522;28;20420;-40
2021/01/23 05:00:05;;;;;;;9.32;6.13;;;18.80;45.60;;;;;;5077309;28;20048;-42
2021/01/23 05:02:33;;;;;;;10.32;7.30;;;18.80;45.60;;;;;;5081534;28;20072;-39
2021/01/23 05:05:02;;;;;;;8.93;6.82;;;18.80;45.70;;;;;;5079191;28;20492;-42
2021/01/23 05:07:30;;;;;;;9.63;6.55;;;18.80;45.70;;;;;;5081714;28;20504;-40
2021/01/23 05:10:24;;;;;;;9.77;6.43;;;18.90;45.80;;;;;;5078992;28;20052;-40
2021/01/23 05:12:51;;;;;;;10.45;6.78;;;18.80;45.70;;;;;;5083929;28;20101;-39
2021/01/23 05:15:27;;;;;;;9.75;6.82;;;18.80;45.70;;;;;;5082116;28;20113;-38
2021/01/23 05:17:59;;;;;;;9.15;6.50;;;18.80;45.70;;;;;;5088556;28;20105;-39
2021/01/23 05:20:29;;;;;;;9.18;6.68;;;18.80;45.70;;;;;;5081318;28;20086;-39
2021/01/23 05:22:56;;;;;;;9.32;6.90;;;18.80;45.70;;;;;;5087409;28;20082;-38
2021/01/23 05:25:31;;;;;;;9.82;7.07;;;18.80;45.70;;;;;;5090098;28;20071;-38
2021/01/23 05:27:58;;;;;;;9.95;6.43;;;18.80;45.70;;;;;;5088989;28;20044;-38
2021/01/23 05:30:38;;;;;;;9.00;6.63;;;18.80;45.70;;;;;;5085852;28;20052;-38
2021/01/23 05:33:07;;;;;;;8.60;6.10;;;18.80;45.70;;;;;;5087066;28;20741;-38
2021/01/23 05:35:36;;;;;;;10.85;6.63;;;18.80;45.70;;;;;;5077377;28;20464;-39
2021/01/23 05:38:20;;;;;;;9.52;6.95;;;18.80;45.70;;;;;;5086532;28;20048;-38
2021/01/23 05:40:47;;;;;;;10.27;6.45;;;18.80;45.70;;;;;;5085080;28;20044;-41
2021/01/23 05:43:27;;;;;;;9.77;6.57;;;18.80;45.70;;;;;;5083590;28;20036;-39
2021/01/23 05:45:54;;;;;;;8.95;6.65;;;18.80;45.70;;;;;;5077887;28;20044;-38
2021/01/23 05:48:21;;;;;;;9.35;6.85;;;18.80;45.70;;;;;;5082165;28;20521;-39
2021/01/23 05:50:53;;;;;;;8.93;6.65;;;18.90;45.80;;;;;;5084485;28;20055;-39
2021/01/23 05:53:19;;;;;;;9.10;6.45;;;18.80;45.70;;;;;;5088906;28;20054;-39
2021/01/23 05:55:46;;;;;;;8.60;6.40;;;18.80;45.70;;;;;;5080208;28;20049;-38
2021/01/23 05:58:13;;;;;;;8.52;6.32;;;18.80;45.70;;;;;;5081407;28;20495;-40
2021/01/23 06:00:41;;;;;;;9.93;6.78;;;18.90;45.80;;;;;;5081083;28;20064;-39
2021/01/23 06:03:08;;;;;;;8.38;6.53;;;18.80;45.70;;;;;;5085410;28;20064;-38
2021/01/23 06:05:34;;;;;;;9.02;6.38;;;18.80;45.70;;;;;;5086978;28;20094;-39
2021/01/23 06:08:02;;;;;;;9.18;6.68;;;18.80;45.70;;;;;;5083639;28;20048;-38
2021/01/23 06:10:36;;;;;;;10.00;6.70;;;18.90;45.80;;;;;;5080288;28;20102;-38
2021/01/23 06:13:04;;;;;;;9.80;6.47;;;18.80;45.70;;;;;;5080020;28;20063;-38
2021/01/23 06:15:31;;;;;;;9.30;6.63;;;18.80;45.70;;;;;;5076114;28;20059;-42
2021/01/23 06:18:03;;;;;;;9.50;7.18;;;18.90;45.70;;;;;;5080358;28;20094;-40
2021/01/23 06:20:42;;;;;;;9.30;6.50;;;18.90;45.70;;;;;;5080997;28;20044;-44
2021/01/23 06:23:10;;;;;;;8.48;6.18;;;18.90;45.70;;;;;;5081977;28;20052;-38
2021/01/23 06:25:49;;;;;;;10.23;6.40;;;18.80;45.70;;;;;;5078369;28;20057;-38
2021/01/23 06:28:16;;;;;;;9.27;6.65;;;18.80;45.70;;;;;;5081954;28;20097;-43
2021/01/23 06:30:43;;;;;;;9.07;6.68;;;18.90;45.70;;;;;;5084511;28;20118;-42
2021/01/23 06:33:22;;;;;;;8.73;5.78;;;18.80;45.60;;;;;;5089868;28;20044;-43
2021/01/23 06:36:06;;;;;;;9.57;7.15;;;18.90;45.70;;;;;;5084086;28;20093;-44
2021/01/23 06:38:34;;;;;;;9.30;6.43;;;18.80;46.20;;;;;;5086690;28;20106;-46
2021/01/23 06:41:24;;;;;;;9.45;6.60;;;18.80;45.60;;;;;;5086625;28;20040;-43
2021/01/23 06:44:12;;;;;;;9.90;6.50;;;18.80;45.60;;;;;;5077994;28;20055;-45
2021/01/23 06:46:41;;;;;;;10.05;6.30;;;18.80;45.60;;;;;;5079997;28;20066;-41
2021/01/23 06:49:16;;;;;;;8.57;6.20;;;18.80;45.60;;;;;;5081350;28;20044;-38
2021/01/23 06:51:44;;;;;;;;;;;18.80;45.70;;;;;;5080971;28;20108;-40
2021/01/23 06:54:20;;;;;;;10.07;6.78;;;18.90;45.70;;;;;;5084433;28;19920;-39
2021/01/23 06:56:54;;;;;;;9.43;6.55;;;18.80;45.60;;;;;;5079599;28;20036;-39
2021/01/23 06:59:30;;;;;;;9.93;6.90;;;18.80;45.60;;;;;;5076677;28;20462;-43
2021/01/23 07:02:14;;;;;;;9.55;6.78;;;18.80;45.60;;;;;;5083780;28;20045;-42
2021/01/23 07:04:47;;;;;;;10.98;6.40;;;18.80;45.60;;;;;;5089873;28;20058;-39
2021/01/23 07:07:15;;;;;;;9.90;6.57;;;18.80;45.70;;;;;;5080272;28;20076;-40
2021/01/23 07:09:50;;;;;;;9.93;6.40;;;18.80;45.70;;;;;;5088762;28;20112;-41
2021/01/23 07:12:52;;;;;;;9.18;6.50;;;18.80;45.70;;;;;;5080601;28;20424;-42
2021/01/23 07:15:22;;;;;;;9.02;6.40;;;18.80;45.70;;;;;;5063671;28;20040;-38
2021/01/23 07:17:51;;;;;;;9.38;6.43;;;18.80;45.70;;;;;;5058449;28;20044;-39
2021/01/23 07:20:18;;;;;;;9.00;6.53;;;18.80;45.70;;;;;;5062656;28;20068;-40
2021/01/23 07:22:46;;;;;;;8.43;6.35;;;18.80;45.70;;;;;;5065769;28;20068;-43
2021/01/23 07:25:15;;;;;;;9.48;6.82;;;18.80;45.70;;;;;;5064692;28;20048;-44
2021/01/23 07:27:44;;;;;;;9.23;6.68;;;18.80;45.70;;;;;;5061169;28;20432;-39
2021/01/23 07:30:12;;;;;;;8.02;6.20;;;18.80;45.60;;;;;;5065402;28;20052;-39
2021/01/23 07:32:41;;;;;;;7.60;5.60;;;18.90;45.70;;;;;;5062807;28;20080;-41
2021/01/23 07:35:09;;;;;;;9.65;6.50;;;18.80;45.60;;;;;;5066085;28;20060;-39
2021/01/23 07:37:50;;;;;;;8.25;6.00;;;18.90;45.70;;;;;;5059288;28;20080;-44
2021/01/23 07:40:24;;;;;;;9.07;6.32;;;18.90;45.70;;;;;;5061870;28;20040;-40
2021/01/23 07:42:58;;;;;;;9.00;6.45;;;18.90;45.70;;;;;;5060438;28;20106;-39
2021/01/23 07:45:25;;;;;;;8.77;6.07;;;18.90;45.70;;;;;;5060213;28;20520;-40
2021/01/23 07:48:05;;;;;;;7.93;6.10;;;18.90;45.70;;;;;;5061671;28;20063;-40
2021/01/23 07:50:46;;;;;;;8.57;6.25;;;18.90;45.70;;;;;;5081392;28;20050;-39
2021/01/23 07:53:23;;;;;;;9.55;6.18;;;18.90;45.70;;;;;;5088607;28;20085;-38
2021/01/23 07:55:51;;;;;;;9.18;6.38;;;18.90;45.70;;;;;;5079348;28;20067;-39
2021/01/23 07:58:18;;;;;;;9.23;6.13;;;18.90;45.70;;;;;;5086223;28;20043;-39
2021/01/23 08:00:46;;;;;;;8.90;6.07;;;18.90;45.70;;;;;;5079987;28;20514;-39
2021/01/23 08:03:14;;;;;;;9.00;6.28;;;18.90;45.70;;;;;;5086551;28;20044;-39
2021/01/23 08:05:50;;;;;;;8.77;6.28;;;18.90;45.60;;;;;;5077918;28;20056;-39
2021/01/23 08:08:35;;;;;;;7.68;5.45;;;18.90;45.80;;;;;;5085482;28;20125;-39
2021/01/23 08:11:06;;;;;;;7.50;5.88;;;18.90;45.60;;;;;;5082920;28;20066;-39
2021/01/23 08:13:34;;;;;;;8.88;6.30;;;18.90;45.60;;;;;;5089190;28;20492;-39
2021/01/23 08:16:16;;;;;;;8.85;6.18;;;18.90;45.60;;;;;;5088848;28;20040;-39
2021/01/23 08:18:43;;;;;;;9.02;6.13;;;18.90;45.60;;;;;;5087723;28;20089;-42
2021/01/23 08:21:21;;;;;;;7.97;6.03;;;18.90;45.60;;;;;;5092912;28;20044;-39
2021/01/23 08:23:48;;;;;;;8.32;5.90;;;18.90;45.60;;;;;;5079076;28;20044;-42
2021/01/23 08:26:16;;;;;;;8.95;6.57;;;18.90;45.60;;;;;;5082857;28;20067;-40
2021/01/23 08:28:46;;;;;;;9.15;6.25;;;18.90;45.60;;;;;;5085312;28;20074;-39
2021/01/23 08:31:18;;;;;;;7.55;5.60;;;18.90;45.70;;;;;;5081477;28;20125;-40
2021/01/23 08:33:52;;;;;;;7.93;5.35;;;18.90;45.60;;;;;;5083256;28;20055;-42
2021/01/23 08:36:19;;;;;;;8.45;6.10;;;18.90;45.60;;;;;;5079531;28;20123;-39
2021/01/23 08:38:53;;;;;;;7.57;5.53;;;18.90;45.60;;;;;;5089336;28;20089;-40
2021/01/23 08:41:20;;;;;;;8.82;5.97;;;18.90;45.60;;;;;;5076962;28;20045;-39
2021/01/23 08:43:47;;;;;;;8.10;5.97;;;18.90;45.60;;;;;;5081522;28;20496;-41
2021/01/23 08:46:13;;;;;;;8.77;5.93;;;18.90;45.60;;;;;;5082787;28;20052;-39
2021/01/23 08:48:40;;;;;;;8.88;6.35;;;18.90;45.60;;;;;;5092029;28;20055;-40
2021/01/23 08:51:07;;;;;;;7.05;5.82;;;18.90;45.60;;;;;;5085029;28;20052;-41
2021/01/23 08:53:34;;;;;;;7.57;5.43;;;18.90;45.60;;;;;;5089736;28;20077;-40
2021/01/23 08:56:00;;;;;;;8.77;6.13;;;18.90;45.60;;;;;;5087146;28;20089;-40
2021/01/23 08:58:27;;;;;;;8.02;5.90;;;18.90;45.60;;;;;;5086728;28;20068;-39
2021/01/23 09:00:54;;;;;;;7.90;5.70;;;18.90;45.60;;;;;;5089448;28;20075;-40
2021/01/23 09:03:20;;;;;;;7.60;5.75;;;18.90;45.60;;;;;;5088448;28;20048;-39
2021/01/23 09:05:47;;;;;;;8.45;5.93;;;18.90;45.60;;;;;;5089106;28;20048;-39
2021/01/23 09:08:14;;;;;;;7.50;5.57;;;18.90;46.10;;;;;;5082087;28;20049;-39
2021/01/23 09:10:40;;;;;;;8.23;5.22;;;19.00;45.60;;;;;;5087872;28;20488;-43
2021/01/23 09:13:07;;;;;;;7.70;5.47;;;18.90;45.50;;;;;;5083815;28;20101;-44
2021/01/23 09:15:34;;;;;;;8.05;5.63;;;18.90;45.50;;;;;;5083836;28;20051;-39
2021/01/23 09:18:00;;;;;;;7.50;6.13;;;18.90;45.60;;;;;;5079929;28;20037;-40
2021/01/23 09:20:27;;;;;;;7.78;5.63;;;18.90;45.50;;;;;;5088298;28;20044;-41
2021/01/23 09:22:54;;;;;;;7.93;6.03;;;18.90;45.60;;;;;;5083096;28;20109;-40
2021/01/23 09:25:21;;;;;;;7.65;5.97;;;18.90;46.10;;;;;;5088871;28;20056;-38
2021/01/23 09:27:47;;;;;;;7.78;5.47;;;19.00;45.60;;;;;;5085396;28;20053;-39
2021/01/23 09:30:15;;;;;;;8.05;5.47;;;19.00;45.60;;;;;;5088922;28;20059;-38
2021/01/23 09:32:42;;;;;;;8.65;6.45;;;18.90;45.50;;;;;;5090913;28;20523;-39
2021/01/23 09:35:11;;;;;;;8.20;5.38;;;19.00;45.70;;;;;;5084425;28;20135;-39
2021/01/23 09:37:38;;;;;;;8.63;5.88;;;19.00;45.60;;;;;;5080521;28;20087;-38
2021/01/23 09:40:06;;;;;;;7.47;5.35;;;18.90;45.50;;;;;;5076806;28;20094;-38
2021/01/23 09:42:33;;;;;;;8.15;5.97;;;19.00;45.60;;;;;;5087105;28;20083;-40
2021/01/23 09:45:00;;;;;;;8.05;5.78;;;19.00;45.60;;;;;;5080352;28;20044;-39
2021/01/23 09:47:27;;;;;;;7.85;5.32;;;19.00;45.60;;;;;;5086053;28;20040;-38
2021/01/23 09:49:54;;;;;;;8.55;6.25;;;19.00;45.60;;;;;;5083897;28;20079;-39
2021/01/23 09:52:20;;;;;;;7.18;5.32;;;19.00;45.60;;;;;;5087342;28;20468;-39
2021/01/23 09:54:47;;;;;;;7.18;5.40;;;19.00;45.60;;;;;;5088830;28;20048;-38
2021/01/23 09:57:13;;;;;;;8.18;5.47;;;19.00;45.50;;;;;;5086520;28;20056;-41
2021/01/23 09:59:40;;;;;;;6.55;5.05;;;19.00;45.60;;;;;;5088943;28;20454;-41
2021/01/23 10:02:07;;;;;;;7.40;5.40;;;19.00;45.50;;;;;;5087297;28;20098;-41
2021/01/23 10:04:34;;;;;;;7.80;5.57;;;19.00;45.50;;;;;;5083677;28;20052;-38
2021/01/23 10:07:00;;;;;;;8.43;5.55;;;19.00;45.50;;;;;;5081337;28;20055;-38
2021/01/23 10:09:27;;;;;;;9.02;5.70;;;19.00;45.50;;;;;;5083159;28;20044;-39
2021/01/23 10:11:55;;;;;;;7.68;5.57;;;19.00;45.50;;;;;;5085841;28;20045;-45
2021/01/23 10:14:21;;;;;;;7.20;5.57;;;19.00;45.50;;;;;;5082056;28;20056;-40
2021/01/23 10:16:48;;;;;;;7.35;5.55;;;19.00;45.50;;;;;;5087442;28;20047;-41
2021/01/23 10:19:15;;;;;;;8.15;5.72;;;19.00;45.50;;;;;;5080634;28;20044;-44
2021/01/23 10:21:42;;;;;;;7.03;5.40;;;19.00;45.50;;;;;;5090331;28;20097;-41
2021/01/23 10:24:10;;;;;;;7.20;5.07;;;19.00;45.50;;;;;;5079781;28;20074;-39
2021/01/23 10:26:36;;;;;;;7.43;5.13;;;19.00;45.50;;;;;;5076959;28;20059;-40
2021/01/23 10:29:03;;;;;;;6.88;5.45;;;19.00;45.50;;;;;;5084419;28;20063;-39
2021/01/23 10:31:30;;;;;;;6.68;4.80;;;19.00;45.50;;;;;;5080021;28;20139;-44
2021/01/23 10:33:57;;;;;;;7.25;5.18;;;19.00;45.50;;;;;;5081371;28;20072;-43
2021/01/23 10:36:23;;;;;;;7.05;5.13;;;19.00;45.50;;;;;;5085936;28;20416;-44
2021/01/23 10:38:50;;;;;;;7.30;5.35;;;19.00;45.50;;;;;;5079172;28;20044;-44
2021/01/23 10:41:17;;;;;;;6.85;4.90;;;19.00;45.50;;;;;;5085018;28;20044;-40
2021/01/23 10:43:43;;;;;;;8.30;5.82;;;19.00;45.50;;;;;;5083632;28;20093;-43
2021/01/23 10:46:10;;;;;;;8.02;5.47;;;19.00;45.50;;;;;;5076922;28;20098;-41
2021/01/23 10:48:37;;;;;;;7.25;5.07;;;19.00;45.50;;;;;;5084158;28;20131;-39
2021/01/23 10:51:04;;;;;;;7.40;5.13;;;19.00;45.50;;;;;;5076511;28;20048;-38
2021/01/23 10:53:32;;;;;;;6.53;5.10;;;19.10;45.60;;;;;;5087871;28;20055;-38
2021/01/23 10:55:59;;;;;;;9.80;5.40;;;19.00;45.50;;;;;;5092008;28;20044;-40
2021/01/23 10:58:26;;;;;;;6.55;4.90;;;19.00;45.70;;;;;;5082511;28;20384;-42
2021/01/23 11:00:53;;;;;;;7.90;5.25;;;19.00;45.70;;;;;;5089314;28;20040;-44
2021/01/23 11:03:19;;;;;;;6.70;4.65;;;19.00;45.90;;;;;;5097432;28;20052;-37
2021/01/23 11:05:46;;;;;;;11.77;5.20;;;19.10;46.50;;;;;;5057378;28;20040;-41
2021/01/23 11:08:13;;;;;;;10.10;5.50;;;19.10;46.70;;;;;;5006914;28;20513;-39
2021/01/23 11:10:39;;;;;;;10.88;5.40;;;19.10;47.00;;;;;;5002282;28;20411;-41
2021/01/23 11:13:06;;;;;;;11.00;5.47;;;19.10;47.00;;;;;;5017865;28;20050;-42
2021/01/23 11:15:33;;;;;;;7.78;5.10;;;19.10;46.80;;;;;;5018484;28;20037;-39
2021/01/23 11:18:00;;;;;;;7.57;5.55;;;19.10;46.90;;;;;;5025266;28;20121;-39
2021/01/23 11:20:27;;;;;;;12.18;5.43;;;19.10;46.80;;;;;;5029588;28;20476;-42
2021/01/23 11:22:53;;;;;;;9.23;4.88;;;19.10;46.70;;;;;;5026014;28;20448;-40
2021/01/23 11:25:20;;;;;;;9.77;5.10;;;19.10;46.60;;;;;;5025672;28;20456;-39
2021/01/23 11:27:46;;;;;;;9.27;5.10;;;19.10;46.40;;;;;;5027275;28;20076;-42
2021/01/23 11:30:14;;;;;;;9.95;5.60;;;19.10;46.30;;;;;;5025196;28;20108;-38
2021/01/23 11:32:40;;;;;;;7.63;4.95;;;19.10;46.30;;;;;;5015656;28;20049;-39
2021/01/23 11:35:08;;;;;;;8.10;5.28;;;19.10;46.30;;;;;;5020141;28;20084;-40
2021/01/23 11:37:35;;;;;;;10.75;5.30;;;19.10;46.20;;;;;;5024017;28;20053;-38
2021/01/23 11:40:06;;;;;;;7.88;4.68;;;19.10;46.20;;;;;;5019706;28;20478;-40
2021/01/23 11:42:34;;;;;;;9.07;5.32;;;19.10;46.10;;;;;;5022036;28;20046;-39
2021/01/23 11:45:03;;;;;;;6.63;5.03;;;19.10;46.10;;;;;;5023894;28;20053;-39
2021/01/23 11:47:31;;;;;;;7.10;5.20;;;19.10;46.10;;;;;;5023826;28;20050;-38
2021/01/23 11:49:58;;;;;;;7.25;5.13;;;19.10;46.10;;;;;;5017101;28;20045;-40
2021/01/23 11:52:24;;;;;;;7.72;4.80;;;19.10;46.10;;;;;;5021586;28;20061;-41
2021/01/23 11:54:51;;;;;;;8.85;4.55;;;19.10;46.10;;;;;;5019916;28;20053;-38
2021/01/23 11:57:18;;;;;;;9.05;5.18;;;19.10;46.10;;;;;;5021238;28;20406;-40
2021/01/23 11:59:45;;;;;;;9.23;4.93;;;19.10;46.20;;;;;;5021242;28;20046;-38
2021/01/23 12:02:12;;;;;;;7.68;5.10;;;19.10;46.10;;;;;;5018309;28;20410;-38
2021/01/23 12:04:39;;;;;;;10.82;4.78;;;19.10;46.10;;;;;;5019701;28;20045;-39
2021/01/23 12:07:06;;;;;;;11.32;4.75;;;19.10;46.10;;;;;;5017780;28;20050;-38
2021/01/23 12:09:32;;;;;;;13.23;5.35;;;19.10;46.10;;;;;;5027385;28;20497;-39
2021/01/23 12:11:59;;;;;;;10.48;5.13;;;19.10;46.10;;;;;;5027644;28;20084;-43
2021/01/23 12:14:26;;;;;;;9.57;5.10;;;19.10;46.10;;;;;;5020158;28;20052;-40
2021/01/23 12:16:52;;;;;;;6.78;5.00;;;19.10;46.10;;;;;;5021421;28;20095;-38
2021/01/23 12:19:19;;;;;;;13.13;4.57;;;19.10;46.10;;;;;;5020698;28;20129;-42
2021/01/23 12:21:47;;;;;;;10.73;5.35;;;19.10;46.10;;;;;;5018262;28;20053;-39
2021/01/23 12:24:14;;;;;;;8.38;4.90;;;19.10;46.10;;;;;;5020387;28;20045;-38
2021/01/23 12:26:41;;;;;;;12.05;5.22;;;19.10;46.10;;;;;;5024851;28;20088;-39
2021/01/23 12:29:07;;;;;;;7.22;4.75;;;19.10;46.10;;;;;;5020340;28;20057;-38
2021/01/23 12:31:34;;;;;;;9.02;4.72;;;19.10;46.10;;;;;;5019590;28;20057;-39
2021/01/23 12:34:01;;;;;;;11.18;4.65;;;19.10;46.10;;;;;;5018871;28;20152;-38
2021/01/23 12:36:28;;;;;;;8.65;4.80;;;19.10;46.10;;;;;;5020250;28;20049;-38
2021/01/23 12:38:54;;;;;;;7.50;4.60;;;19.10;46.10;;;;;;5022142;28;20046;-38
2021/01/23 12:41:21;;;;;;;10.55;4.97;;;19.10;46.10;;;;;;5025384;28;20086;-39
2021/01/23 12:43:48;;;;;;;7.38;4.30;;;19.10;46.10;;;;;;5025875;28;20046;-38
2021/01/23 12:46:15;;;;;;;6.00;4.38;;;19.10;46.70;;;;;;5019693;28;20455;-38
2021/01/23 12:48:45;;;;;;;7.30;4.30;;;19.10;46.10;;;;;;5020789;28;20057;-38
2021/01/23 12:51:18;;;;;;;9.82;5.03;;;19.10;46.00;;;;;;5024970;28;20092;-42
2021/01/23 12:53:45;;;;;;;7.97;4.20;;;19.10;46.00;;;;;;5022454;28;20056;-39